createdAt,value
2022-12-16T00:00:16.138Z,1.80
2022-12-16T00:02:44.212Z,2.05
2022-12-16T00:05:12.096Z,1.80
2022-12-16T00:07:39.830Z,1.70
2022-12-16T00:10:09.023Z,1.63
2022-12-16T00:12:36.788Z,1.83
2022-12-16T00:15:05.165Z,1.55
2022-12-16T00:17:33.036Z,2.03
2022-12-16T00:20:03.051Z,2.03
2022-12-16T00:22:31.205Z,1.60
2022-12-16T00:24:59.190Z,1.70
2022-12-16T00:27:26.922Z,2.00
2022-12-16T00:29:54.954Z,1.52
2022-12-16T00:32:23.011Z,1.88
2022-12-16T00:34:50.686Z,2.85
2022-12-16T00:37:19.741Z,2.03
2022-12-16T00:39:47.587Z,1.52
2022-12-16T00:42:15.195Z,1.75
2022-12-16T00:44:42.910Z,1.38
2022-12-16T00:47:10.664Z,1.40
2022-12-16T00:49:38.422Z,1.83
2022-12-16T00:52:06.224Z,1.50
2022-12-16T00:54:34.028Z,1.80
2022-12-16T00:57:01.614Z,1.45
2022-12-16T00:59:29.351Z,1.70
2022-12-16T01:01:57.782Z,1.40
2022-12-16T01:04:27.020Z,1.50
2022-12-16T01:06:54.916Z,1.38
2022-12-16T01:09:23.419Z,1.63
2022-12-16T01:11:51.643Z,1.70
2022-12-16T01:14:19.671Z,1.50
2022-12-16T01:16:47.398Z,1.45
2022-12-16T01:19:15.405Z,1.55
2022-12-16T01:21:43.149Z,1.23
2022-12-16T01:24:11.854Z,1.45
2022-12-16T01:26:39.661Z,1.60
2022-12-16T01:29:07.476Z,1.23
2022-12-16T01:31:35.372Z,1.60
2022-12-16T01:34:03.388Z,1.55
2022-12-16T01:36:31.164Z,1.30
2022-12-16T01:38:58.934Z,1.50
2022-12-16T01:41:28.791Z,1.80
2022-12-16T01:44:18.021Z,1.65
2022-12-16T01:46:56.694Z,1.40
2022-12-16T01:49:50.815Z,1.70
2022-12-16T01:52:23.692Z,1.80
2022-12-16T01:55:00.082Z,1.50
2022-12-16T01:57:38.419Z,1.75
2022-12-16T02:00:06.919Z,1.73
2022-12-16T02:02:44.120Z,2.15
2022-12-16T02:05:21.316Z,1.48
2022-12-16T02:08:13.093Z,1.70
2022-12-16T02:10:43.933Z,1.20
2022-12-16T02:13:33.842Z,1.40
2022-12-16T02:16:09.985Z,1.40
2022-12-16T02:19:22.577Z,1.05
2022-12-16T02:22:23.603Z,1.20
2022-12-16T02:25:22.913Z,1.33
2022-12-16T02:27:54.975Z,1.15
2022-12-16T02:30:44.050Z,1.27
2022-12-16T02:33:36.292Z,1.60
2022-12-16T02:36:30.821Z,1.90
2022-12-16T02:39:12.768Z,2.05
2022-12-16T02:41:52.995Z,2.50
2022-12-16T02:44:54.267Z,3.20
2022-12-16T02:47:22.151Z,2.70
2022-12-16T02:49:53.498Z,2.45
2022-12-16T02:52:33.145Z,2.42
2022-12-16T02:55:09.700Z,2.28
2022-12-16T02:58:00.595Z,1.70
2022-12-16T03:00:38.813Z,2.10
2022-12-16T03:03:17.646Z,2.00
2022-12-16T03:05:48.796Z,2.15
2022-12-16T03:08:25.784Z,1.88
2022-12-16T03:11:00.574Z,2.10
2022-12-16T03:13:33.460Z,1.65
2022-12-16T03:16:02.738Z,1.50
2022-12-16T03:18:30.942Z,1.55
2022-12-16T03:21:07.998Z,1.80
2022-12-16T03:23:41.863Z,1.60
2022-12-16T03:26:15.955Z,2.70
2022-12-16T03:28:56.462Z,4.05
2022-12-16T03:31:46.229Z,4.75
2022-12-16T03:34:22.024Z,3.80
2022-12-16T03:36:54.129Z,3.63
2022-12-16T03:39:23.584Z,3.05
2022-12-16T03:41:54.435Z,2.70
2022-12-16T03:44:25.677Z,2.15
2022-12-16T03:46:53.702Z,2.00
2022-12-16T03:49:23.217Z,2.50
2022-12-16T03:51:51.122Z,2.63
2022-12-16T03:54:19.281Z,2.42
2022-12-16T03:56:47.820Z,2.47
2022-12-16T03:59:15.447Z,2.50
2022-12-16T04:01:43.977Z,2.47
2022-12-16T04:04:11.891Z,2.50
2022-12-16T04:06:39.795Z,2.58
2022-12-16T04:09:07.616Z,2.30
2022-12-16T04:11:53.843Z,2.15
2022-12-16T04:14:39.984Z,2.80
2022-12-16T04:17:32.054Z,2.42
2022-12-16T04:20:18.206Z,2.67
2022-12-16T04:23:04.621Z,2.40
2022-12-16T04:25:36.848Z,2.28
2022-12-16T04:28:04.593Z,2.50
2022-12-16T04:30:36.623Z,2.40
2022-12-16T04:33:32.490Z,2.45
2022-12-16T04:36:19.719Z,2.25
2022-12-16T04:39:06.025Z,2.00
2022-12-16T04:41:52.517Z,2.08
2022-12-16T04:44:39.042Z,1.90
2022-12-16T04:47:26.465Z,1.77
2022-12-16T04:50:13.084Z,2.25
2022-12-16T04:52:59.404Z,1.75
2022-12-16T04:55:45.508Z,1.98
2022-12-16T04:58:31.733Z,1.92
2022-12-16T05:01:18.466Z,2.00
2022-12-16T05:04:06.165Z,1.60
2022-12-16T05:06:52.387Z,2.20
2022-12-16T05:09:38.698Z,2.15
2022-12-16T05:12:24.735Z,1.90
2022-12-16T05:15:28.043Z,1.70
2022-12-16T05:18:14.614Z,1.80
2022-12-16T05:21:01.085Z,1.52
2022-12-16T05:23:47.216Z,1.83
2022-12-16T05:26:33.757Z,1.65
2022-12-16T05:29:30.926Z,2.13
2022-12-16T05:32:17.305Z,1.65
2022-12-16T05:35:05.241Z,1.85
2022-12-16T05:37:52.331Z,1.85
2022-12-16T05:40:38.739Z,1.67
2022-12-16T05:43:24.935Z,1.80
2022-12-16T05:46:15.771Z,2.03
2022-12-16T05:49:02.346Z,1.52
2022-12-16T05:51:48.411Z,1.88
2022-12-16T05:54:34.402Z,1.67
2022-12-16T05:57:20.663Z,2.38
2022-12-16T06:00:07.142Z,3.42
2022-12-16T06:02:58.474Z,4.65
2022-12-16T06:05:44.764Z,5.10
2022-12-16T06:08:30.978Z,4.85
2022-12-16T06:11:17.031Z,5.30
2022-12-16T06:14:03.320Z,4.90
2022-12-16T06:16:57.296Z,4.28
2022-12-16T06:19:43.732Z,3.80
2022-12-16T06:22:30.063Z,3.33
2022-12-16T06:25:16.313Z,2.83
2022-12-16T06:28:07.685Z,2.97
2022-12-16T06:30:54.917Z,2.85
2022-12-16T06:33:42.523Z,2.60
2022-12-16T06:36:29.283Z,2.50
2022-12-16T06:39:15.445Z,2.60
2022-12-16T06:42:02.054Z,3.63
2022-12-16T06:44:48.420Z,4.20
2022-12-16T06:47:34.793Z,5.90
2022-12-16T06:50:21.200Z,6.30
2022-12-16T06:53:07.420Z,4.40
2022-12-16T06:56:08.028Z,4.13
2022-12-16T06:58:54.357Z,3.70
2022-12-16T07:01:40.582Z,3.25
2022-12-16T07:04:26.860Z,3.38
2022-12-16T07:07:13.186Z,3.08
2022-12-16T07:09:59.575Z,2.50
2022-12-16T07:12:45.771Z,2.88
2022-12-16T07:15:31.902Z,2.85
2022-12-16T07:18:19.049Z,3.08
2022-12-16T07:21:05.409Z,2.90
2022-12-16T07:23:51.495Z,2.70
2022-12-16T07:26:38.955Z,2.50
2022-12-16T07:29:26.268Z,2.58
2022-12-16T07:32:13.953Z,2.50
2022-12-16T07:37:46.528Z,2.40
2022-12-16T07:40:32.882Z,2.65
2022-12-16T07:43:19.420Z,2.70
2022-12-16T07:46:05.999Z,2.40
2022-12-16T07:48:52.065Z,2.80
2022-12-16T07:51:38.938Z,2.58
2022-12-16T07:54:26.301Z,2.92
2022-12-16T07:57:12.714Z,4.40
2022-12-16T07:59:59.182Z,5.10
2022-12-16T08:02:45.639Z,5.82
2022-12-16T08:05:31.754Z,4.80
2022-12-16T08:08:18.121Z,4.10
2022-12-16T08:11:04.293Z,3.42
2022-12-16T08:13:50.472Z,3.00
2022-12-16T08:16:36.812Z,3.00
2022-12-16T08:19:23.081Z,3.10
2022-12-16T08:22:09.313Z,2.90
2022-12-16T08:24:56.185Z,3.22
2022-12-16T08:27:43.153Z,3.10
2022-12-16T08:30:32.094Z,3.08
2022-12-16T08:33:21.350Z,2.92
2022-12-16T08:36:07.545Z,3.15
2022-12-16T08:38:54.953Z,3.00
2022-12-16T08:41:42.108Z,3.22
2022-12-16T08:44:28.342Z,2.55
2022-12-16T08:47:14.492Z,3.15
2022-12-16T08:50:02.567Z,3.15
2022-12-16T08:52:50.841Z,4.25
2022-12-16T08:55:37.184Z,3.72
2022-12-16T08:58:23.289Z,3.53
2022-12-16T09:01:09.728Z,4.00
2022-12-16T09:03:56.763Z,3.88
2022-12-16T09:06:42.900Z,3.72
2022-12-16T09:09:29.805Z,3.80
2022-12-16T09:12:16.330Z,3.88
2022-12-16T09:15:02.643Z,3.92
2022-12-16T09:17:48.936Z,4.43
2022-12-16T09:20:35.296Z,4.22
2022-12-16T09:23:22.934Z,3.67
2022-12-16T09:26:09.669Z,6.25
2022-12-16T09:28:56.486Z,6.90
2022-12-16T09:31:56.708Z,7.75
2022-12-16T09:34:43.633Z,5.00
2022-12-16T09:37:31.414Z,5.05
2022-12-16T09:40:17.987Z,3.85
2022-12-16T09:43:07.824Z,3.75
2022-12-16T09:46:21.002Z,3.58
2022-12-16T09:49:28.430Z,3.63
2022-12-16T09:52:18.461Z,3.85
2022-12-16T09:55:08.253Z,3.53
2022-12-16T09:57:57.394Z,4.03
2022-12-16T10:00:47.432Z,3.47
2022-12-16T10:03:52.511Z,3.10
2022-12-16T10:06:50.084Z,3.35
2022-12-16T10:10:36.906Z,3.67
2022-12-16T10:13:37.116Z,8.70
2022-12-16T10:16:42.433Z,12.68
2022-12-16T10:19:49.041Z,9.57
2022-12-16T10:22:57.844Z,7.47
2022-12-16T10:26:10.355Z,6.30
2022-12-16T10:29:23.191Z,5.38
2022-12-16T10:32:12.373Z,4.90
2022-12-16T10:35:00.170Z,4.63
2022-12-16T10:37:53.462Z,4.22
2022-12-16T10:40:46.893Z,4.63
2022-12-16T10:44:04.221Z,4.35
2022-12-16T10:46:53.426Z,4.20
2022-12-16T10:49:41.091Z,5.30
2022-12-16T10:52:30.794Z,5.38
2022-12-16T10:55:42.952Z,4.75
2022-12-16T10:58:55.276Z,4.22
2022-12-16T11:01:46.722Z,3.22
2022-12-16T11:04:55.663Z,3.17
2022-12-16T11:07:51.213Z,2.95
2022-12-16T11:11:01.500Z,2.80
2022-12-16T11:13:48.731Z,3.50
2022-12-16T11:16:44.641Z,7.50
2022-12-16T11:19:46.336Z,6.38
2022-12-16T11:22:41.363Z,5.10
2022-12-16T11:25:38.697Z,4.32
2022-12-16T11:28:36.592Z,4.20
2022-12-16T11:31:26.910Z,4.32
2022-12-16T11:34:14.734Z,4.40
2022-12-16T11:37:03.278Z,3.78
2022-12-16T11:39:52.503Z,3.63
2022-12-16T11:42:42.944Z,3.90
2022-12-16T11:45:34.668Z,4.32
2022-12-16T11:48:40.557Z,3.95
2022-12-16T11:51:32.645Z,3.42
2022-12-16T11:54:34.104Z,2.75
2022-12-16T11:57:25.021Z,2.40
2022-12-16T12:00:20.663Z,2.70
2022-12-16T12:03:30.148Z,3.38
2022-12-16T12:06:45.615Z,3.70
2022-12-16T12:09:36.750Z,5.03
2022-12-16T12:12:37.370Z,5.40
2022-12-16T12:15:29.026Z,5.13
2022-12-16T12:18:36.921Z,4.88
2022-12-16T12:21:39.651Z,4.88
2022-12-16T12:24:44.674Z,5.72
2022-12-16T12:27:52.691Z,13.23
2022-12-16T12:30:41.575Z,15.90
2022-12-16T12:33:59.664Z,12.98
2022-12-16T12:37:13.159Z,70.03
2022-12-16T12:40:35.220Z,6.28
2022-12-16T12:43:30.552Z,22.17
2022-12-16T12:46:29.952Z,24.73
2022-12-16T12:49:16.327Z,17.92
2022-12-16T12:52:41.051Z,15.02
2022-12-16T12:55:34.528Z,8.90
2022-12-16T12:58:22.665Z,7.25
2022-12-16T13:01:17.139Z,7.68
2022-12-16T13:04:19.186Z,8.20
2022-12-16T13:07:05.846Z,8.75
2022-12-16T13:09:54.450Z,9.20
2022-12-16T13:12:40.824Z,7.88
2022-12-16T13:15:38.352Z,6.40
2022-12-16T13:18:25.038Z,4.10
2022-12-16T13:21:21.831Z,4.10
2022-12-16T13:24:10.943Z,4.38
2022-12-16T13:27:20.795Z,9.55
2022-12-16T13:30:27.855Z,10.70
2022-12-16T13:33:37.248Z,9.90
2022-12-16T13:36:25.060Z,9.38
2022-12-16T13:42:01.405Z,9.68
2022-12-16T13:45:03.045Z,8.75
2022-12-16T13:47:50.050Z,8.45
2022-12-16T13:51:18.006Z,7.10
2022-12-16T13:54:11.507Z,5.45
2022-12-16T13:57:07.946Z,4.20
2022-12-16T13:59:59.385Z,4.35
2022-12-16T14:02:55.085Z,3.60
2022-12-16T14:05:56.653Z,3.28
2022-12-16T14:08:44.742Z,2.60
2022-12-16T14:11:41.800Z,2.53
2022-12-16T14:15:04.858Z,2.95
2022-12-16T14:18:18.057Z,2.90
2022-12-16T14:21:13.444Z,2.30
2022-12-16T14:24:07.941Z,2.55
2022-12-16T14:26:56.332Z,2.30
2022-12-16T14:29:48.406Z,1.80
2022-12-16T14:32:50.777Z,1.88
2022-12-16T14:35:54.288Z,3.88
2022-12-16T14:38:48.754Z,10.27
2022-12-16T14:41:44.131Z,13.73
2022-12-16T14:44:50.156Z,13.48
2022-12-16T14:47:38.686Z,9.73
2022-12-16T14:50:41.397Z,9.38
2022-12-16T14:53:37.969Z,9.50
2022-12-16T14:56:40.859Z,9.32
2022-12-16T14:59:28.145Z,5.72
2022-12-16T15:02:18.077Z,4.63
2022-12-16T15:05:06.280Z,3.50
2022-12-16T15:07:56.360Z,3.53
2022-12-16T15:10:46.439Z,2.63
2022-12-16T15:13:37.599Z,2.97
2022-12-16T15:16:25.910Z,3.65
2022-12-16T15:19:18.846Z,2.80
2022-12-16T15:22:06.788Z,2.15
2022-12-16T15:24:57.992Z,2.83
2022-12-16T15:27:52.419Z,1.88
2022-12-16T15:31:01.542Z,2.45
2022-12-16T15:33:50.902Z,2.90
2022-12-16T15:36:44.737Z,2.30
2022-12-16T15:39:43.458Z,2.42
2022-12-16T15:42:49.112Z,1.70
2022-12-16T15:45:50.446Z,1.90
2022-12-16T15:48:41.870Z,1.63
2022-12-16T15:52:01.793Z,1.80
2022-12-16T15:54:48.830Z,2.20
2022-12-16T15:57:50.159Z,1.92
2022-12-16T16:00:41.107Z,1.83
2022-12-16T16:03:46.638Z,1.92
2022-12-16T16:06:42.342Z,2.45
2022-12-16T16:09:43.321Z,2.13
2022-12-16T16:12:31.498Z,2.72
2022-12-16T16:15:18.259Z,2.40
2022-12-16T16:18:07.424Z,2.90
2022-12-16T16:20:54.083Z,3.42
2022-12-16T16:23:40.059Z,3.40
2022-12-16T16:26:30.311Z,2.90
2022-12-16T16:29:16.605Z,2.55
2022-12-16T16:32:06.033Z,2.70
2022-12-16T16:34:52.140Z,2.07
2022-12-16T16:37:40.005Z,1.85
2022-12-16T16:40:37.317Z,1.83
2022-12-16T16:43:23.754Z,1.70
2022-12-16T16:46:13.141Z,1.92
2022-12-16T16:49:00.515Z,2.20
2022-12-16T16:51:46.796Z,2.00
2022-12-16T16:54:33.214Z,2.15
2022-12-16T16:57:20.682Z,2.42
2022-12-16T17:00:07.132Z,1.95
2022-12-16T17:02:53.347Z,2.30
2022-12-16T17:05:43.259Z,2.75
2022-12-16T17:08:29.655Z,2.80
2022-12-16T17:11:16.058Z,2.38
2022-12-16T17:14:02.200Z,2.72
2022-12-16T17:16:48.333Z,3.30
2022-12-16T17:19:45.244Z,5.75
2022-12-16T17:22:31.596Z,4.20
2022-12-16T17:25:17.727Z,3.92
2022-12-16T17:28:04.622Z,3.25
2022-12-16T17:30:50.883Z,3.60
2022-12-16T17:33:37.797Z,3.42
2022-12-16T17:36:29.996Z,3.22
2022-12-16T17:39:16.474Z,2.88
2022-12-16T17:42:03.418Z,2.60
2022-12-16T17:44:49.633Z,2.60
2022-12-16T17:47:52.580Z,2.95
2022-12-16T17:50:38.504Z,2.42
2022-12-16T17:53:24.751Z,2.50
2022-12-16T17:56:11.367Z,1.95
2022-12-16T17:58:58.208Z,2.20
2022-12-16T18:01:45.600Z,2.80
2022-12-16T18:04:48.843Z,2.60
2022-12-16T18:07:34.826Z,2.97
2022-12-16T18:10:21.270Z,2.90
2022-12-16T18:13:08.292Z,2.33
2022-12-16T18:15:54.509Z,2.60
2022-12-16T18:18:46.196Z,2.67
2022-12-16T18:21:33.284Z,3.95
2022-12-16T18:24:25.062Z,4.50
2022-12-16T18:27:11.938Z,6.50
2022-12-16T18:29:58.241Z,5.67
2022-12-16T18:32:44.628Z,4.57
2022-12-16T18:35:31.316Z,4.75
2022-12-16T18:38:17.582Z,6.07
2022-12-16T18:41:03.900Z,6.90
2022-12-16T18:43:50.178Z,6.47
2022-12-16T18:46:36.462Z,6.28
2022-12-16T18:49:22.730Z,5.18
2022-12-16T18:52:09.111Z,4.13
2022-12-16T18:54:55.217Z,3.90
2022-12-16T18:57:41.268Z,3.92
2022-12-16T19:00:28.860Z,4.10
2022-12-16T19:03:29.021Z,4.05
2022-12-16T19:06:15.779Z,4.47
2022-12-16T19:09:01.848Z,4.20
2022-12-16T19:11:48.171Z,3.50
2022-12-16T19:14:34.452Z,4.07
2022-12-16T19:17:21.449Z,3.85
2022-12-16T19:20:07.677Z,3.57
2022-12-16T19:22:53.854Z,3.95
2022-12-16T19:25:42.833Z,3.83
2022-12-16T19:28:34.154Z,3.50
2022-12-16T19:31:20.563Z,3.40
2022-12-16T19:34:07.033Z,4.00
2022-12-16T19:36:53.442Z,3.78
2022-12-16T19:39:39.993Z,3.42
2022-12-16T19:42:26.420Z,7.40
2022-12-16T19:45:12.645Z,10.00
2022-12-16T19:47:59.002Z,11.65
2022-12-16T19:50:45.925Z,11.23
2022-12-16T19:53:32.377Z,12.70
2022-12-16T19:56:20.153Z,16.33
2022-12-16T20:01:54.822Z,17.90
2022-12-16T20:04:41.433Z,28.20
2022-12-16T20:07:28.598Z,33.67
2022-12-16T20:10:14.869Z,36.58
2022-12-16T20:13:01.427Z,30.30
2022-12-16T20:15:47.624Z,21.95
2022-12-16T20:18:33.823Z,16.85
2022-12-16T20:21:21.650Z,14.65
2022-12-16T20:24:08.010Z,11.63
2022-12-16T20:26:55.361Z,13.52
2022-12-16T20:29:41.592Z,16.23
2022-12-16T20:32:27.965Z,17.85
2022-12-16T20:35:14.190Z,16.77
2022-12-16T20:38:00.448Z,14.77
2022-12-16T20:40:46.831Z,13.48
2022-12-16T20:43:32.912Z,11.70
2022-12-16T20:46:19.464Z,11.68
2022-12-16T20:49:05.561Z,10.30
2022-12-16T20:51:52.084Z,8.93
2022-12-16T20:54:39.464Z,9.55
2022-12-16T20:57:26.478Z,8.95
2022-12-16T21:00:12.776Z,11.23
2022-12-16T21:02:59.704Z,11.25
2022-12-16T21:05:46.086Z,11.17
2022-12-16T21:08:32.128Z,11.35
2022-12-16T21:11:18.577Z,11.10
2022-12-16T21:14:21.620Z,9.77
2022-12-16T21:17:07.662Z,7.70
2022-12-16T21:19:53.966Z,7.82
2022-12-16T21:22:43.000Z,7.10
2022-12-16T21:25:29.111Z,7.60
2022-12-16T21:28:18.881Z,7.40
2022-12-16T21:31:05.267Z,6.43
2022-12-16T21:33:51.524Z,6.85
2022-12-16T21:36:38.053Z,6.65
2022-12-16T21:39:24.667Z,6.90
2022-12-16T21:42:10.892Z,6.55
2022-12-16T21:44:57.287Z,8.70
2022-12-16T21:47:43.742Z,8.70
2022-12-16T21:50:30.136Z,8.13
2022-12-16T21:53:16.423Z,7.90
2022-12-16T21:56:10.423Z,7.25
2022-12-16T21:58:56.618Z,7.13
2022-12-16T22:01:42.855Z,7.18
2022-12-16T22:04:29.137Z,7.72
2022-12-16T22:07:15.545Z,7.97
2022-12-16T22:10:02.475Z,7.63
2022-12-16T22:12:51.283Z,7.47
2022-12-16T22:15:38.555Z,8.27
2022-12-16T22:18:25.180Z,12.63
2022-12-16T22:21:20.157Z,12.40
2022-12-16T22:24:07.083Z,9.75
2022-12-16T22:26:53.885Z,8.02
2022-12-16T22:29:43.101Z,6.60
2022-12-16T22:32:29.535Z,7.53
2022-12-16T22:35:15.780Z,6.95
2022-12-16T22:38:02.131Z,7.00
2022-12-16T22:40:48.537Z,8.35
2022-12-16T22:43:34.818Z,8.32
2022-12-16T22:46:22.516Z,10.25
2022-12-16T22:49:08.785Z,11.13
2022-12-16T22:51:55.903Z,9.20
2022-12-16T22:54:43.719Z,8.57
2022-12-16T22:57:30.125Z,7.60
2022-12-16T23:00:16.542Z,6.78
2022-12-16T23:03:02.673Z,8.02
2022-12-16T23:05:48.987Z,11.13
2022-12-16T23:08:35.288Z,11.25
2022-12-16T23:11:21.994Z,11.95
2022-12-16T23:14:08.317Z,9.60
2022-12-16T23:16:56.145Z,10.60
2022-12-16T23:19:47.284Z,10.53
2022-12-16T23:22:33.612Z,9.75
2022-12-16T23:25:19.997Z,9.98
2022-12-16T23:28:06.133Z,8.30
2022-12-16T23:30:52.863Z,7.43
2022-12-16T23:33:40.105Z,7.15
2022-12-16T23:36:26.325Z,7.18
2022-12-16T23:39:12.846Z,6.72
2022-12-16T23:41:58.897Z,6.88
2022-12-16T23:44:45.369Z,6.95
2022-12-16T23:47:31.493Z,6.72
2022-12-16T23:50:17.589Z,6.45
2022-12-16T23:53:05.327Z,7.00
2022-12-16T23:55:51.747Z,6.05
2022-12-16T23:58:38.212Z,6.18
